Time,TemperatureF,DewpointF,PressureIn,WindDirection,WindDirectionDegrees,WindSpeedMPH,WindSpeedGustMPH,Humidity,HourlyPrecipIn,Conditions,Clouds,dailyrainin,SoftwareType,DateUTC
2013-01-29 00:00:00,55.7,55.4,29.74,South,177,7.0,19.0,99,0.00,,---,0.00,VWS V14.01,2013-01-29 06:00:00,
2013-01-29 00:03:00,55.4,55.1,29.75,SSE,148,10.0,16.0,99,0.00,,---,0.00,VWS V14.01,2013-01-29 06:03:00,
2013-01-29 00:08:00,55.3,55.0,29.75,South,188,8.0,16.0,99,0.00,,---,0.00,VWS V14.01,2013-01-29 06:08:00,
2013-01-29 00:13:00,55.4,55.1,29.75,SSE,148,10.0,16.0,99,0.00,,---,0.00,VWS V14.01,2013-01-29 06:13:00,
2013-01-29 00:18:00,55.5,55.2,29.75,SSE,151,5.0,16.0,99,0.00,,---,0.00,VWS V14.01,2013-01-29 06:18:00,
2013-01-29 00:23:00,55.4,55.1,29.75,SSE,160,7.0,16.0,99,0.00,,---,0.00,VWS V14.01,2013-01-29 06:23:00,
2013-01-29 00:28:00,55.4,55.1,29.75,ESE,117,7.0,16.0,99,0.00,,---,0.00,VWS V14.01,2013-01-29 06:28:00,
2013-01-29 00:30:00,55.5,55.2,29.73,SE,142,4.0,15.0,99,0.00,,---,0.00,VWS V14.01,2013-01-29 06:30:00,
2013-01-29 00:33:00,55.5,55.2,29.75,SSE,157,6.0,15.0,99,0.00,,---,0.00,VWS V14.01,2013-01-29 06:33:00,
2013-01-29 00:38:00,55.5,55.2,29.75,SSE,163,9.0,15.0,99,0.00,,---,0.00,VWS V14.01,2013-01-29 06:38:00,
2013-01-29 00:43:00,55.6,55.3,29.74,South,185,11.0,16.0,99,0.00,,---,0.00,VWS V14.01,2013-01-29 06:43:00,
2013-01-29 00:48:00,55.7,55.4,29.74,SE,139,5.0,16.0,99,0.00,,---,0.00,VWS V14.01,2013-01-29 06:48:00,
2013-01-29 00:53:00,55.7,55.4,29.74,SSE,154,5.0,19.0,99,0.00,,---,0.00,VWS V14.01,2013-01-29 06:53:00,
2013-01-29 00:58:00,55.7,55.4,29.74,SSW,197,8.0,19.0,99,0.00,,---,0.00,VWS V14.01,2013-01-29 06:58:00,
2013-01-29 01:00:00,55.8,55.5,29.72,South,185,7.0,15.0,99,0.00,,---,0.00,VWS V14.01,2013-01-29 07:00:00,
2013-01-29 01:03:00,55.8,55.5,29.74,SSE,167,6.0,15.0,99,0.00,,---,0.00,VWS V14.01,2013-01-29 07:03:00,
2013-01-29 01:08:00,55.7,55.4,29.74,SE,146,6.0,15.0,99,0.00,,---,0.00,VWS V14.01,2013-01-29 07:08:00,
2013-01-29 01:13:00,55.7,55.4,29.73,South,177,4.0,15.0,99,0.00,,---,0.00,VWS V14.01,2013-01-29 07:13:00,
2013-01-29 01:18:00,55.7,55.4,29.73,SE,145,7.0,15.0,99,0.00,,---,0.00,VWS V14.01,2013-01-29 07:18:00,
2013-01-29 01:23:00,55.6,55.3,29.74,SE,142,2.0,15.0,99,0.00,,---,0.00,VWS V14.01,2013-01-29 07:23:00,
2013-01-29 01:28:00,55.4,55.1,29.73,SSW,197,8.0,15.0,99,0.00,,---,0.00,VWS V14.01,2013-01-29 07:28:00,
2013-01-29 01:30:00,56.4,56.1,29.71,South,171,5.0,18.0,99,0.00,,---,0.00,VWS V14.01,2013-01-29 07:30:00,
2013-01-29 01:33:00,55.5,55.2,29.73,SSE,157,9.0,13.0,99,0.00,,---,0.00,VWS V14.01,2013-01-29 07:33:00,
2013-01-29 01:38:00,55.6,55.3,29.73,SSE,153,5.0,13.0,99,0.00,,---,0.00,VWS V14.01,2013-01-29 07:38:00,
2013-01-29 01:43:00,55.6,55.3,29.73,SSE,153,5.0,15.0,99,0.00,,---,0.00,VWS V14.01,2013-01-29 07:43:00,
2013-01-29 01:48:00,55.6,55.3,29.72,South,180,6.0,15.0,99,0.00,,---,0.00,VWS V14.01,2013-01-29 07:48:00,
2013-01-29 01:53:00,55.6,55.3,29.72,South,186,5.0,15.0,99,0.00,,---,0.00,VWS V14.01,2013-01-29 07:53:00,
2013-01-29 01:58:00,55.7,55.4,29.72,SSE,162,5.0,15.0,99,0.00,,---,0.00,VWS V14.01,2013-01-29 07:58:00,
2013-01-29 02:00:00,57.1,56.8,29.70,SSE,150,5.0,19.0,99,0.01,,---,0.01,VWS V14.01,2013-01-29 08:00:00,
2013-01-29 02:03:00,55.8,55.5,29.72,SSE,162,6.0,10.0,99,0.00,,---,0.00,VWS V14.01,2013-01-29 08:03:00,
2013-01-29 02:08:00,56.0,55.7,29.72,SE,134,10.0,12.0,99,0.00,,---,0.00,VWS V14.01,2013-01-29 08:08:00,
2013-01-29 02:13:00,56.1,55.8,29.71,SE,145,7.0,12.0,99,0.00,,---,0.00,VWS V14.01,2013-01-29 08:13:00,
2013-01-29 02:18:00,56.2,55.9,29.71,SE,146,7.0,15.0,99,0.00,,---,0.00,VWS V14.01,2013-01-29 08:18:00,
2013-01-29 02:23:00,56.3,56.0,29.72,SSE,155,8.0,18.0,99,0.00,,---,0.00,VWS V14.01,2013-01-29 08:23:00,
2013-01-29 02:28:00,56.4,56.1,29.71,South,177,7.0,18.0,99,0.00,,---,0.00,VWS V14.01,2013-01-29 08:28:00,
2013-01-29 02:30:00,58.0,57.7,29.70,SE,144,8.0,18.0,99,0.04,,---,0.04,VWS V14.01,2013-01-29 08:30:00,
2013-01-29 02:33:00,56.4,56.1,29.71,SE,146,6.0,15.0,99,0.00,,---,0.00,VWS V14.01,2013-01-29 08:33:00,
2013-01-29 02:38:00,56.5,56.2,29.71,SSE,161,10.0,19.0,99,0.01,,---,0.01,VWS V14.01,2013-01-29 08:38:00,
2013-01-29 02:43:00,56.7,56.4,29.71,SE,144,5.0,19.0,99,0.01,,---,0.01,VWS V14.01,2013-01-29 08:43:00,
2013-01-29 02:48:00,56.9,56.6,29.70,SSE,166,5.0,19.0,99,0.01,,---,0.01,VWS V14.01,2013-01-29 08:48:00,
2013-01-29 02:53:00,57.0,56.7,29.70,SW,220,6.0,19.0,99,0.01,,---,0.01,VWS V14.01,2013-01-29 08:53:00,
2013-01-29 02:58:00,57.1,56.8,29.70,SSE,150,7.0,19.0,99,0.01,,---,0.01,VWS V14.01,2013-01-29 08:58:00,
2013-01-29 03:00:00,56.9,56.6,29.69,SSE,159,4.0,15.0,99,0.06,,---,0.06,VWS V14.01,2013-01-29 09:00:00,
2013-01-29 03:03:00,57.1,56.8,29.71,SSE,165,7.0,15.0,99,0.01,,---,0.01,VWS V14.01,2013-01-29 09:03:00,
2013-01-29 03:08:00,57.0,56.7,29.71,South,172,7.0,15.0,99,0.01,,---,0.01,VWS V14.01,2013-01-29 09:08:00,
2013-01-29 03:13:00,57.1,56.8,29.71,South,172,2.0,15.0,99,0.01,,---,0.01,VWS V14.01,2013-01-29 09:13:00,
2013-01-29 03:18:00,57.2,56.9,29.71,WSW,248,12.0,16.0,99,0.01,,---,0.01,VWS V14.01,2013-01-29 09:18:00,
2013-01-29 03:23:00,57.6,57.3,29.72,SE,138,7.0,18.0,99,0.02,,---,0.02,VWS V14.01,2013-01-29 09:23:00,
2013-01-29 03:28:00,58.0,57.7,29.71,SSW,198,11.0,18.0,99,0.04,,---,0.04,VWS V14.01,2013-01-29 09:28:00,
2013-01-29 03:30:00,56.8,56.5,29.68,South,180,7.0,19.0,99,0.05,,---,0.06,VWS V14.01,2013-01-29 09:30:00,
2013-01-29 03:33:00,57.9,57.6,29.69,SSE,158,10.0,14.0,99,0.06,,---,0.06,VWS V14.01,2013-01-29 09:33:00,
2013-01-29 03:38:00,57.7,57.4,29.68,SE,146,5.0,15.0,99,0.06,,---,0.06,VWS V14.01,2013-01-29 09:38:00,
2013-01-29 03:43:00,57.5,57.2,29.69,East,95,5.0,15.0,99,0.06,,---,0.06,VWS V14.01,2013-01-29 09:43:00,
2013-01-29 03:47:00,57.3,57.0,29.69,South,189,3.0,15.0,99,0.06,,---,0.06,VWS V14.01,2013-01-29 09:47:00,
2013-01-29 03:53:00,57.0,56.7,29.70,SSW,192,7.0,15.0,99,0.06,,---,0.06,VWS V14.01,2013-01-29 09:53:00,
2013-01-29 03:58:00,56.9,56.6,29.69,South,190,4.0,15.0,99,0.06,,---,0.06,VWS V14.01,2013-01-29 09:58:00,
2013-01-29 04:00:00,56.5,56.2,29.67,SSE,165,8.0,16.0,99,0.03,,---,0.07,VWS V14.01,2013-01-29 10:00:00,
2013-01-29 04:03:00,56.9,56.6,29.69,SSE,162,4.0,11.0,99,0.05,,---,0.06,VWS V14.01,2013-01-29 10:03:00,
2013-01-29 04:08:00,56.8,56.5,29.69,SSE,166,6.0,11.0,99,0.05,,---,0.06,VWS V14.01,2013-01-29 10:08:00,
2013-01-29 04:13:00,56.9,56.6,29.69,South,170,6.0,13.0,99,0.05,,---,0.06,VWS V14.01,2013-01-29 10:13:00,
2013-01-29 04:18:00,56.8,56.5,29.69,SSE,150,9.0,13.0,99,0.05,,---,0.06,VWS V14.01,2013-01-29 10:18:00,
2013-01-29 04:23:00,56.9,56.6,29.68,SE,145,4.0,13.0,99,0.05,,---,0.06,VWS V14.01,2013-01-29 10:23:00,
2013-01-29 04:27:00,56.8,56.5,29.68,SSW,193,5.0,19.0,99,0.05,,---,0.06,VWS V14.01,2013-01-29 10:27:00,
2013-01-29 04:30:00,56.7,56.4,29.67,SSE,150,6.0,15.0,99,0.01,,---,0.07,VWS V14.01,2013-01-29 10:30:00,
2013-01-29 04:32:00,56.8,56.5,29.67,SSE,157,9.0,13.0,99,0.02,,---,0.06,VWS V14.01,2013-01-29 10:32:00,
2013-01-29 04:37:00,56.7,56.4,29.67,South,171,9.0,14.0,99,0.02,,---,0.06,VWS V14.01,2013-01-29 10:37:00,
2013-01-29 04:43:00,56.7,56.4,29.67,SSE,155,6.0,14.0,99,0.02,,---,0.06,VWS V14.01,2013-01-29 10:43:00,
2013-01-29 04:47:00,56.6,56.3,29.67,South,187,5.0,16.0,99,0.02,,---,0.06,VWS V14.01,2013-01-29 10:47:00,
2013-01-29 04:52:00,56.6,56.3,29.67,SSE,168,6.0,16.0,99,0.02,,---,0.06,VWS V14.01,2013-01-29 10:52:00,
2013-01-29 04:57:00,56.5,56.2,29.67,SSE,165,5.0,16.0,99,0.03,,---,0.07,VWS V14.01,2013-01-29 10:57:00,
2013-01-29 05:00:00,56.3,56.0,29.67,South,173,5.0,19.0,99,0.01,,---,0.07,VWS V14.01,2013-01-29 11:00:00,
2013-01-29 05:02:00,56.6,56.3,29.67,SSE,161,10.0,12.0,99,0.01,,---,0.07,VWS V14.01,2013-01-29 11:02:00,
2013-01-29 05:07:00,56.6,56.3,29.68,South,182,3.0,14.0,99,0.01,,---,0.07,VWS V14.01,2013-01-29 11:07:00,
2013-01-29 05:13:00,56.4,56.1,29.68,South,190,6.0,15.0,99,0.01,,---,0.07,VWS V14.01,2013-01-29 11:13:00,
2013-01-29 05:18:00,56.5,56.2,29.68,SSE,155,5.0,15.0,99,0.01,,---,0.07,VWS V14.01,2013-01-29 11:18:00,
2013-01-29 05:23:00,56.6,56.3,29.67,South,180,15.0,15.0,99,0.01,,---,0.07,VWS V14.01,2013-01-29 11:23:00,
2013-01-29 05:28:00,56.6,56.3,29.67,SE,132,5.0,15.0,99,0.01,,---,0.07,VWS V14.01,2013-01-29 11:28:00,
2013-01-29 05:30:00,56.0,55.7,29.67,SSW,205,9.0,15.0,99,0.00,,---,0.07,VWS V14.01,2013-01-29 11:30:00,
2013-01-29 05:33:00,56.7,56.4,29.67,South,183,6.0,11.0,99,0.01,,---,0.07,VWS V14.01,2013-01-29 11:33:00,
2013-01-29 05:38:00,56.7,56.4,29.67,SSE,154,7.0,11.0,99,0.01,,---,0.07,VWS V14.01,2013-01-29 11:38:00,
2013-01-29 05:43:00,56.8,56.5,29.67,SSE,152,7.0,12.0,99,0.01,,---,0.07,VWS V14.01,2013-01-29 11:43:00,
2013-01-29 05:48:00,56.7,56.4,29.67,SE,142,19.0,19.0,99,0.01,,---,0.07,VWS V14.01,2013-01-29 11:48:00,
2013-01-29 05:53:00,56.5,56.2,29.67,SSE,167,5.0,19.0,99,0.01,,---,0.07,VWS V14.01,2013-01-29 11:53:00,
2013-01-29 05:58:00,56.4,56.1,29.67,SSE,163,9.0,19.0,99,0.01,,---,0.07,VWS V14.01,2013-01-29 11:58:00,
2013-01-29 06:00:00,55.9,55.6,29.66,SW,221,0.0,12.0,99,0.00,,---,0.07,VWS V14.01,2013-01-29 12:00:00,
2013-01-29 06:03:00,56.2,55.9,29.67,ESE,111,7.0,12.0,99,0.00,,---,0.07,VWS V14.01,2013-01-29 12:03:00,
2013-01-29 06:08:00,56.2,55.9,29.67,SSE,155,4.0,15.0,99,0.00,,---,0.07,VWS V14.01,2013-01-29 12:08:00,
2013-01-29 06:13:00,56.0,55.7,29.67,South,177,8.0,15.0,99,0.00,,---,0.07,VWS V14.01,2013-01-29 12:13:00,
2013-01-29 06:18:00,56.2,55.9,29.67,SSW,198,12.0,15.0,99,0.00,,---,0.07,VWS V14.01,2013-01-29 12:18:00,
2013-01-29 06:23:00,56.2,55.9,29.67,SSE,155,5.0,15.0,99,0.00,,---,0.07,VWS V14.01,2013-01-29 12:23:00,
2013-01-29 06:27:00,56.0,55.7,29.67,SSW,195,6.0,15.0,99,0.00,,---,0.07,VWS V14.01,2013-01-29 12:27:00,
2013-01-29 06:30:00,56.2,55.9,29.66,SSW,198,12.0,15.0,99,0.00,,---,0.07,VWS V14.01,2013-01-29 12:30:00,
2013-01-29 06:32:00,55.9,55.6,29.66,South,176,1.0,9.0,99,0.00,,---,0.07,VWS V14.01,2013-01-29 12:32:00,
2013-01-29 06:37:00,56.0,55.7,29.65,SSE,155,6.0,9.0,99,0.00,,---,0.07,VWS V14.01,2013-01-29 12:37:00,
2013-01-29 06:42:00,56.0,55.7,29.67,SSW,202,1.0,10.0,99,0.00,,---,0.07,VWS V14.01,2013-01-29 12:42:00,
2013-01-29 06:47:00,55.9,55.6,29.66,SSW,198,2.0,10.0,99,0.00,,---,0.07,VWS V14.01,2013-01-29 12:47:00,
2013-01-29 06:52:00,55.9,55.3,29.66,South,187,0.0,10.0,98,0.00,,---,0.07,VWS V14.01,2013-01-29 12:52:00,
2013-01-29 06:57:00,55.8,55.5,29.66,South,172,0.0,12.0,99,0.00,,---,0.07,VWS V14.01,2013-01-29 12:57:00,
2013-01-29 07:00:00,56.7,56.4,29.65,South,184,0.0,14.0,99,0.00,,---,0.07,VWS V14.01,2013-01-29 13:00:00,
2013-01-29 07:02:00,56.0,55.7,29.66,SW,217,8.0,11.0,99,0.00,,---,0.07,VWS V14.01,2013-01-29 13:02:00,
2013-01-29 07:07:00,56.0,55.7,29.66,SW,229,6.0,12.0,99,0.00,,---,0.07,VWS V14.01,2013-01-29 13:07:00,
2013-01-29 07:12:00,55.9,55.6,29.65,SSE,168,4.0,12.0,99,0.00,,---,0.07,VWS V14.01,2013-01-29 13:12:00,
2013-01-29 07:17:00,55.9,55.6,29.66,SSE,162,3.0,12.0,99,0.00,,---,0.07,VWS V14.01,2013-01-29 13:17:00,
2013-01-29 07:22:00,55.9,55.6,29.66,SSW,204,0.0,12.0,99,0.00,,---,0.07,VWS V14.01,2013-01-29 13:22:00,
2013-01-29 07:27:00,56.0,55.7,29.66,South,179,2.0,15.0,99,0.00,,---,0.07,VWS V14.01,2013-01-29 13:27:00,
2013-01-29 07:30:00,57.0,56.7,29.65,SE,146,7.0,12.0,99,0.00,,---,0.07,VWS V14.01,2013-01-29 13:30:00,
2013-01-29 07:32:00,56.3,56.0,29.66,SSW,202,0.0,12.0,99,0.00,,---,0.07,VWS V14.01,2013-01-29 13:32:00,
2013-01-29 07:37:00,56.5,56.2,29.66,South,180,5.0,12.0,99,0.00,,---,0.07,VWS V14.01,2013-01-29 13:37:00,
2013-01-29 07:42:00,56.4,56.1,29.66,South,178,5.0,12.0,99,0.00,,---,0.07,VWS V14.01,2013-01-29 13:42:00,
2013-01-29 07:47:00,56.4,56.1,29.65,SSW,197,1.0,12.0,99,0.00,,---,0.07,VWS V14.01,2013-01-29 13:47:00,
2013-01-29 07:52:00,56.5,56.2,29.65,SSE,154,1.0,12.0,99,0.00,,---,0.07,VWS V14.01,2013-01-29 13:52:00,
2013-01-29 07:57:00,56.6,56.3,29.65,South,171,0.0,14.0,99,0.00,,---,0.07,VWS V14.01,2013-01-29 13:57:00,
2013-01-29 08:00:00,57.9,57.6,29.63,ESE,115,9.0,18.0,99,0.00,,---,0.07,VWS V14.01,2013-01-29 14:00:00,
2013-01-29 08:02:00,56.8,56.5,29.65,SW,218,0.0,9.0,99,0.00,,---,0.07,VWS V14.01,2013-01-29 14:02:00,
2013-01-29 08:07:00,56.9,56.6,29.65,South,171,6.0,11.0,99,0.00,,---,0.07,VWS V14.01,2013-01-29 14:07:00,
2013-01-29 08:12:00,56.9,56.6,29.65,SSW,193,7.0,11.0,99,0.00,,---,0.07,VWS V14.01,2013-01-29 14:12:00,
2013-01-29 08:17:00,56.8,56.5,29.65,South,186,8.0,11.0,99,0.00,,---,0.07,VWS V14.01,2013-01-29 14:17:00,
2013-01-29 08:22:00,56.8,56.5,29.65,SSE,148,4.0,11.0,99,0.00,,---,0.07,VWS V14.01,2013-01-29 14:22:00,
2013-01-29 08:27:00,57.0,56.7,29.65,SSE,157,4.0,12.0,99,0.00,,---,0.07,VWS V14.01,2013-01-29 14:27:00,
2013-01-29 08:30:00,58.5,58.2,29.63,SSE,159,5.0,16.0,99,0.00,,---,0.07,VWS V14.01,2013-01-29 14:30:00,
2013-01-29 08:32:00,57.2,56.9,29.65,SE,142,7.0,11.0,99,0.00,,---,0.07,VWS V14.01,2013-01-29 14:32:00,
2013-01-29 08:37:00,57.4,57.1,29.64,South,174,7.0,14.0,99,0.00,,---,0.07,VWS V14.01,2013-01-29 14:37:00,
2013-01-29 08:42:00,57.6,57.3,29.64,SE,134,8.0,14.0,99,0.00,,---,0.07,VWS V14.01,2013-01-29 14:42:00,
2013-01-29 08:47:00,57.7,57.4,29.64,SSE,161,7.0,18.0,99,0.00,,---,0.07,VWS V14.01,2013-01-29 14:47:00,
2013-01-29 08:52:00,57.8,57.5,29.64,South,182,8.0,18.0,99,0.00,,---,0.07,VWS V14.01,2013-01-29 14:52:00,
2013-01-29 08:57:00,57.9,57.6,29.63,SE,130,8.0,18.0,99,0.00,,---,0.07,VWS V14.01,2013-01-29 14:57:00,
2013-01-29 09:00:00,59.7,59.4,29.63,SE,132,5.0,15.0,99,0.00,,---,0.07,VWS V14.01,2013-01-29 15:00:00,
2013-01-29 09:02:00,57.9,57.6,29.63,SSE,167,5.0,9.0,99,0.00,,---,0.07,VWS V14.01,2013-01-29 15:02:00,
2013-01-29 09:07:00,58.0,57.7,29.63,South,184,5.0,12.0,99,0.00,,---,0.07,VWS V14.01,2013-01-29 15:07:00,
2013-01-29 09:12:00,58.0,57.7,29.64,SSE,159,6.0,12.0,99,0.00,,---,0.07,VWS V14.01,2013-01-29 15:12:00,
2013-01-29 09:17:00,58.1,57.8,29.63,SE,136,9.0,12.0,99,0.00,,---,0.07,VWS V14.01,2013-01-29 15:17:00,
2013-01-29 09:22:00,58.3,58.0,29.63,SSW,194,8.0,12.0,99,0.00,,---,0.07,VWS V14.01,2013-01-29 15:22:00,
2013-01-29 09:27:00,58.4,58.1,29.63,SE,130,7.0,13.0,99,0.00,,---,0.07,VWS V14.01,2013-01-29 15:27:00,
2013-01-29 09:30:00,60.0,59.7,29.62,SSE,165,5.0,16.0,99,0.00,,---,0.07,VWS V14.01,2013-01-29 15:30:00,
2013-01-29 09:32:00,58.6,58.3,29.63,SSE,157,3.0,11.0,99,0.00,,---,0.07,VWS V14.01,2013-01-29 15:32:00,
2013-01-29 09:37:00,58.7,58.4,29.63,SSE,160,6.0,15.0,99,0.00,,---,0.07,VWS V14.01,2013-01-29 15:37:00,
2013-01-29 09:42:00,59.0,58.7,29.63,SE,146,6.0,15.0,99,0.00,,---,0.07,VWS V14.01,2013-01-29 15:42:00,
2013-01-29 09:47:00,59.0,58.7,29.62,SSE,147,8.0,15.0,99,0.00,,---,0.07,VWS V14.01,2013-01-29 15:47:00,
2013-01-29 09:52:00,59.1,58.8,29.62,South,175,6.0,15.0,99,0.00,,---,0.07,VWS V14.01,2013-01-29 15:52:00,
2013-01-29 09:57:00,59.6,59.3,29.63,SW,215,9.0,15.0,99,0.00,,---,0.07,VWS V14.01,2013-01-29 15:57:00,
2013-01-29 10:00:00,62.5,62.2,29.61,SSW,202,5.0,16.0,99,0.00,,---,0.07,VWS V14.01,2013-01-29 16:00:00,
2013-01-29 10:02:00,60.0,59.7,29.62,South,182,6.0,15.0,99,0.00,,---,0.07,VWS V14.01,2013-01-29 16:02:00,
2013-01-29 10:07:00,60.3,60.0,29.63,SE,137,7.0,15.0,99,0.00,,---,0.07,VWS V14.01,2013-01-29 16:07:00,
2013-01-29 10:12:00,60.4,60.1,29.63,SSE,155,3.0,16.0,99,0.00,,---,0.07,VWS V14.01,2013-01-29 16:12:00,
2013-01-29 10:17:00,60.4,60.1,29.64,SSW,211,2.0,16.0,99,0.00,,---,0.07,VWS V14.01,2013-01-29 16:17:00,
2013-01-29 10:22:00,60.2,59.9,29.63,SE,138,4.0,16.0,99,0.00,,---,0.07,VWS V14.01,2013-01-29 16:22:00,
2013-01-29 10:27:00,60.1,59.8,29.62,SE,144,3.0,16.0,99,0.00,,---,0.07,VWS V14.01,2013-01-29 16:27:00,
2013-01-29 10:30:00,63.9,62.4,29.58,SSE,163,6.0,22.0,95,0.00,,---,0.07,VWS V14.01,2013-01-29 16:30:00,
2013-01-29 10:32:00,60.0,59.7,29.62,SSE,161,0.0,13.0,99,0.00,,---,0.07,VWS V14.01,2013-01-29 16:32:00,
2013-01-29 10:37:00,60.6,60.3,29.63,SSE,167,11.0,13.0,99,0.00,,---,0.07,VWS V14.01,2013-01-29 16:37:00,
2013-01-29 10:42:00,61.7,61.4,29.62,SSE,161,6.0,13.0,99,0.00,,---,0.07,VWS V14.01,2013-01-29 16:42:00,
2013-01-29 10:47:00,62.1,61.8,29.62,SSW,211,4.0,13.0,99,0.00,,---,0.07,VWS V14.01,2013-01-29 16:47:00,
2013-01-29 10:52:00,62.5,62.2,29.61,SSE,150,1.0,13.0,99,0.00,,---,0.07,VWS V14.01,2013-01-29 16:52:00,
2013-01-29 10:57:00,62.6,62.3,29.61,South,171,7.0,16.0,99,0.00,,---,0.07,VWS V14.01,2013-01-29 16:57:00,
2013-01-29 11:00:00,63.7,61.0,29.58,SE,146,10.0,24.0,91,0.00,,---,0.07,VWS V14.01,2013-01-29 17:00:00,
2013-01-29 11:02:00,62.7,62.1,29.60,SSW,207,3.0,11.0,98,0.00,,---,0.07,VWS V14.01,2013-01-29 17:02:00,
2013-01-29 11:07:00,62.8,62.2,29.60,SSE,155,6.0,18.0,98,0.00,,---,0.07,VWS V14.01,2013-01-29 17:07:00,
2013-01-29 11:12:00,63.0,62.4,29.60,South,184,12.0,18.0,98,0.00,,---,0.07,VWS V14.01,2013-01-29 17:12:00,
2013-01-29 11:17:00,63.4,62.5,29.59,SSE,160,8.0,22.0,97,0.00,,---,0.07,VWS V14.01,2013-01-29 17:17:00,
2013-01-29 11:22:00,63.6,62.4,29.59,SSE,163,3.0,22.0,96,0.00,,---,0.07,VWS V14.01,2013-01-29 17:22:00,
2013-01-29 11:27:00,63.8,62.3,29.58,SSW,193,4.0,22.0,95,0.00,,---,0.07,VWS V14.01,2013-01-29 17:27:00,
2013-01-29 11:30:00,62.2,59.8,29.54,SSE,149,1.0,15.0,92,0.01,,---,0.08,VWS V14.01,2013-01-29 17:30:00,
2013-01-29 11:32:00,64.1,62.3,29.58,South,177,6.0,14.0,94,0.00,,---,0.07,VWS V14.01,2013-01-29 17:32:00,
2013-01-29 11:37:00,64.1,62.0,29.58,SSW,213,9.0,15.0,93,0.00,,---,0.07,VWS V14.01,2013-01-29 17:37:00,
2013-01-29 11:42:00,64.0,61.6,29.58,South,180,7.0,24.0,92,0.00,,---,0.07,VWS V14.01,2013-01-29 17:42:00,
2013-01-29 11:47:00,63.9,61.5,29.58,SSW,195,13.0,24.0,92,0.00,,---,0.07,VWS V14.01,2013-01-29 17:47:00,
2013-01-29 11:52:00,63.8,61.4,29.58,South,171,4.0,24.0,92,0.00,,---,0.07,VWS V14.01,2013-01-29 17:52:00,
2013-01-29 11:57:00,63.8,61.1,29.58,South,182,4.0,24.0,91,0.00,,---,0.07,VWS V14.01,2013-01-29 17:57:00,
2013-01-29 12:00:00,58.5,56.5,29.54,WSW,251,5.0,23.0,93,0.23,,---,0.30,VWS V14.01,2013-01-29 18:00:00,
2013-01-29 12:02:00,63.6,60.9,29.58,SSW,195,5.0,15.0,91,0.00,,---,0.07,VWS V14.01,2013-01-29 18:02:00,
2013-01-29 12:07:00,63.4,60.7,29.57,SSW,195,3.0,15.0,91,0.00,,---,0.07,VWS V14.01,2013-01-29 18:07:00,
2013-01-29 12:12:00,63.1,60.4,29.56,SE,139,4.0,15.0,91,0.00,,---,0.07,VWS V14.01,2013-01-29 18:12:00,
2013-01-29 12:17:00,62.9,60.2,29.55,SSE,161,4.0,15.0,91,0.00,,---,0.07,VWS V14.01,2013-01-29 18:17:00,
2013-01-29 12:22:00,62.6,59.9,29.55,SSE,148,1.0,15.0,91,0.00,,---,0.07,VWS V14.01,2013-01-29 18:22:00,
2013-01-29 12:27:00,62.3,59.6,29.55,South,182,1.0,15.0,91,0.00,,---,0.07,VWS V14.01,2013-01-29 18:27:00,
2013-01-29 12:30:00,56.5,55.1,29.52,West,273,0.0,8.0,95,0.24,,---,0.31,VWS V14.01,2013-01-29 18:30:00,
2013-01-29 12:32:00,62.0,59.7,29.54,South,177,6.0,8.0,92,0.01,,---,0.08,VWS V14.01,2013-01-29 18:32:00,
2013-01-29 12:37:00,61.6,59.3,29.54,SSE,163,2.0,9.0,92,0.13,,---,0.20,VWS V14.01,2013-01-29 18:37:00,
2013-01-29 12:42:00,61.3,59.6,29.54,SSW,202,10.0,11.0,94,0.20,,---,0.27,VWS V14.01,2013-01-29 18:42:00,
2013-01-29 12:47:00,61.1,59.4,29.54,West,270,6.0,14.0,94,0.20,,---,0.27,VWS V14.01,2013-01-29 18:47:00,
2013-01-29 12:52:00,60.4,58.4,29.55,West,265,7.0,23.0,93,0.23,,---,0.30,VWS V14.01,2013-01-29 18:52:00,
2013-01-29 12:57:00,59.0,57.0,29.55,SSW,195,7.0,23.0,93,0.23,,---,0.30,VWS V14.01,2013-01-29 18:57:00,
2013-01-29 13:00:00,56.6,55.2,29.50,West,266,0.0,6.0,95,0.23,,---,0.31,VWS V14.01,2013-01-29 19:00:00,
2013-01-29 13:02:00,58.0,56.0,29.54,WSW,248,6.0,8.0,93,0.24,,---,0.31,VWS V14.01,2013-01-29 19:02:00,
2013-01-29 13:07:00,57.5,55.8,29.53,West,267,0.0,8.0,94,0.24,,---,0.31,VWS V14.01,2013-01-29 19:07:00,
2013-01-29 13:12:00,57.0,55.3,29.53,West,263,2.0,8.0,94,0.24,,---,0.31,VWS V14.01,2013-01-29 19:12:00,
2013-01-29 13:17:00,56.8,55.1,29.54,SW,232,2.0,8.0,94,0.24,,---,0.31,VWS V14.01,2013-01-29 19:17:00,
2013-01-29 13:22:00,56.5,54.8,29.52,West,273,0.0,8.0,94,0.24,,---,0.31,VWS V14.01,2013-01-29 19:22:00,
2013-01-29 13:27:00,56.4,55.0,29.52,West,273,0.0,8.0,95,0.24,,---,0.31,VWS V14.01,2013-01-29 19:27:00,
2013-01-29 13:30:00,56.0,54.9,29.52,West,266,4.0,7.0,96,0.11,,---,0.41,VWS V14.01,2013-01-29 19:30:00,
2013-01-29 13:32:00,56.5,55.1,29.51,West,273,0.0,1.0,95,0.23,,---,0.31,VWS V14.01,2013-01-29 19:32:00,
2013-01-29 13:37:00,56.6,55.2,29.51,West,274,1.0,5.0,95,0.23,,---,0.31,VWS V14.01,2013-01-29 19:37:00,
2013-01-29 13:42:00,56.7,55.3,29.51,West,274,0.0,5.0,95,0.23,,---,0.31,VWS V14.01,2013-01-29 19:42:00,
2013-01-29 13:47:00,56.7,55.3,29.51,West,266,0.0,6.0,95,0.23,,---,0.31,VWS V14.01,2013-01-29 19:47:00,
2013-01-29 13:52:00,56.7,55.6,29.50,West,266,1.0,6.0,96,0.23,,---,0.31,VWS V14.01,2013-01-29 19:52:00,
2013-01-29 13:57:00,56.6,55.2,29.50,West,266,3.0,6.0,95,0.23,,---,0.31,VWS V14.01,2013-01-29 19:57:00,
2013-01-29 14:00:00,55.8,54.7,29.50,WNW,297,0.0,11.0,96,0.11,,---,0.42,VWS V14.01,2013-01-29 20:00:00,
2013-01-29 14:02:00,56.6,55.5,29.50,West,259,0.0,3.0,96,0.01,,---,0.31,VWS V14.01,2013-01-29 20:02:00,
2013-01-29 14:07:00,56.4,55.0,29.51,WSW,253,4.0,4.0,95,0.01,,---,0.31,VWS V14.01,2013-01-29 20:07:00,
2013-01-29 14:12:00,56.4,55.0,29.50,NW,309,1.0,5.0,95,0.01,,---,0.31,VWS V14.01,2013-01-29 20:12:00,
2013-01-29 14:17:00,56.2,54.8,29.52,SW,229,3.0,6.0,95,0.04,,---,0.34,VWS V14.01,2013-01-29 20:17:00,
2013-01-29 14:22:00,56.1,55.0,29.52,WSW,242,1.0,6.0,96,0.09,,---,0.39,VWS V14.01,2013-01-29 20:22:00,
2013-01-29 14:27:00,56.0,54.9,29.52,West,262,6.0,7.0,96,0.10,,---,0.40,VWS V14.01,2013-01-29 20:27:00,
2013-01-29 14:30:00,55.6,54.8,29.47,NNW,338,0.0,6.0,97,0.12,,---,0.43,VWS V14.01,2013-01-29 20:30:00,
2013-01-29 14:32:00,56.0,54.9,29.52,WNW,302,4.0,7.0,96,0.10,,---,0.41,VWS V14.01,2013-01-29 20:32:00,
2013-01-29 14:37:00,56.0,54.9,29.51,WNW,302,4.0,8.0,96,0.10,,---,0.41,VWS V14.01,2013-01-29 20:37:00,
2013-01-29 14:42:00,56.0,54.9,29.50,West,277,6.0,11.0,96,0.10,,---,0.41,VWS V14.01,2013-01-29 20:42:00,
2013-01-29 14:47:00,55.9,54.8,29.50,WNW,294,0.0,11.0,96,0.10,,---,0.41,VWS V14.01,2013-01-29 20:47:00,
2013-01-29 14:52:00,55.9,54.8,29.50,WNW,289,1.0,11.0,96,0.11,,---,0.42,VWS V14.01,2013-01-29 20:52:00,
2013-01-29 14:57:00,55.8,54.7,29.50,WNW,297,0.0,11.0,96,0.11,,---,0.42,VWS V14.01,2013-01-29 20:57:00,
2013-01-29 15:00:00,55.3,54.5,29.51,WNW,300,0.0,9.0,97,0.18,,---,0.59,VWS V14.01,2013-01-29 21:00:00,
2013-01-29 15:02:00,55.7,54.6,29.50,WNW,297,0.0,4.0,96,0.11,,---,0.42,VWS V14.01,2013-01-29 21:02:00,
2013-01-29 15:07:00,55.7,54.6,29.49,NW,315,2.0,6.0,96,0.11,,---,0.42,VWS V14.01,2013-01-29 21:07:00,
2013-01-29 15:12:00,55.7,54.6,29.48,NNW,330,2.0,6.0,96,0.11,,---,0.42,VWS V14.01,2013-01-29 21:12:00,
2013-01-29 15:17:00,55.7,54.9,29.48,NW,325,0.0,6.0,97,0.11,,---,0.42,VWS V14.01,2013-01-29 21:17:00,
2013-01-29 15:22:00,55.7,54.9,29.47,NNW,340,0.0,6.0,97,0.12,,---,0.43,VWS V14.01,2013-01-29 21:22:00,
2013-01-29 15:27:00,55.6,54.8,29.47,NNW,340,0.0,6.0,97,0.12,,---,0.43,VWS V14.01,2013-01-29 21:27:00,
2013-01-29 15:30:00,55.0,54.2,29.49,NW,307,0.0,6.0,97,0.30,,---,0.72,VWS V14.01,2013-01-29 21:30:00,
2013-01-29 15:32:00,55.6,54.8,29.48,NNW,333,3.0,4.0,97,0.02,,---,0.43,VWS V14.01,2013-01-29 21:32:00,
2013-01-29 15:37:00,55.6,54.8,29.50,NW,306,1.0,5.0,97,0.04,,---,0.45,VWS V14.01,2013-01-29 21:37:00,
2013-01-29 15:42:00,55.5,54.7,29.50,NW,312,4.0,5.0,97,0.06,,---,0.47,VWS V14.01,2013-01-29 21:42:00,
2013-01-29 15:47:00,55.5,54.7,29.50,WNW,302,5.0,9.0,97,0.10,,---,0.51,VWS V14.01,2013-01-29 21:47:00,
2013-01-29 15:52:00,55.4,54.6,29.50,NW,305,0.0,9.0,97,0.13,,---,0.54,VWS V14.01,2013-01-29 21:52:00,
2013-01-29 15:57:00,55.3,54.5,29.51,WNW,300,0.0,9.0,97,0.17,,---,0.58,VWS V14.01,2013-01-29 21:57:00,
2013-01-29 16:00:00,54.7,53.9,29.50,NW,313,0.0,5.0,97,0.37,,---,0.80,VWS V14.01,2013-01-29 22:00:00,
2013-01-29 16:02:00,55.2,54.4,29.52,WNW,300,0.0,0.0,97,0.19,,---,0.61,VWS V14.01,2013-01-29 22:02:00,
2013-01-29 16:07:00,55.0,54.2,29.51,West,280,5.0,6.0,97,0.22,,---,0.64,VWS V14.01,2013-01-29 22:07:00,
2013-01-29 16:12:00,55.1,54.3,29.51,West,277,0.0,6.0,97,0.23,,---,0.65,VWS V14.01,2013-01-29 22:12:00,
2013-01-29 16:17:00,55.0,54.2,29.50,West,277,0.0,6.0,97,0.26,,---,0.68,VWS V14.01,2013-01-29 22:17:00,
2013-01-29 16:22:00,55.0,54.2,29.49,West,278,3.0,6.0,97,0.27,,---,0.69,VWS V14.01,2013-01-29 22:22:00,
2013-01-29 16:27:00,55.0,54.2,29.49,NW,307,2.0,6.0,97,0.30,,---,0.72,VWS V14.01,2013-01-29 22:27:00,
2013-01-29 16:30:00,53.9,53.1,29.50,NW,313,1.0,3.0,97,0.29,,---,0.88,VWS V14.01,2013-01-29 22:30:00,
2013-01-29 16:32:00,55.0,54.2,29.49,NW,310,1.0,4.0,97,0.30,,---,0.73,VWS V14.01,2013-01-29 22:32:00,
2013-01-29 16:37:00,54.9,54.1,29.50,WNW,293,0.0,5.0,97,0.30,,---,0.73,VWS V14.01,2013-01-29 22:37:00,
2013-01-29 16:42:00,54.9,54.1,29.50,WNW,294,4.0,5.0,97,0.31,,---,0.74,VWS V14.01,2013-01-29 22:42:00,
2013-01-29 16:47:00,54.8,54.0,29.50,NW,313,4.0,5.0,97,0.32,,---,0.75,VWS V14.01,2013-01-29 22:47:00,
2013-01-29 16:52:00,54.8,54.0,29.50,NW,313,0.0,5.0,97,0.34,,---,0.77,VWS V14.01,2013-01-29 22:52:00,
2013-01-29 16:57:00,54.7,53.9,29.50,NW,313,1.0,5.0,97,0.36,,---,0.79,VWS V14.01,2013-01-29 22:57:00,
2013-01-29 17:00:00,53.2,52.4,29.50,NW,313,0.0,4.0,97,0.21,,---,0.93,VWS V14.01,2013-01-29 23:00:00,
2013-01-29 17:02:00,54.7,53.9,29.50,NW,313,0.0,0.0,97,0.22,,---,0.81,VWS V14.01,2013-01-29 23:02:00,
2013-01-29 17:07:00,54.5,53.7,29.50,NW,313,0.0,0.0,97,0.24,,---,0.83,VWS V14.01,2013-01-29 23:07:00,
2013-01-29 17:12:00,54.3,53.5,29.49,NW,313,0.0,0.0,97,0.25,,---,0.84,VWS V14.01,2013-01-29 23:12:00,
2013-01-29 17:17:00,54.0,53.2,29.49,NW,313,0.0,0.0,97,0.26,,---,0.85,VWS V14.01,2013-01-29 23:17:00,
2013-01-29 17:22:00,53.8,53.0,29.49,NW,313,0.0,1.0,97,0.28,,---,0.87,VWS V14.01,2013-01-29 23:22:00,
2013-01-29 17:27:00,53.9,53.1,29.50,NW,313,2.0,3.0,97,0.28,,---,0.87,VWS V14.01,2013-01-29 23:27:00,
2013-01-29 17:30:00,52.8,52.2,29.50,NW,313,0.0,1.0,98,0.18,,---,0.98,VWS V14.01,2013-01-29 23:30:00,
2013-01-29 17:32:00,54.0,53.2,29.50,NW,313,0.0,1.0,97,0.16,,---,0.88,VWS V14.01,2013-01-29 23:32:00,
2013-01-29 17:37:00,54.0,54.0,29.50,NW,313,0.0,1.0,100,0.17,,---,0.89,VWS V14.01,2013-01-29 23:37:00,
2013-01-29 17:42:00,53.9,53.1,29.50,NW,313,0.0,1.0,97,0.18,,---,0.90,VWS V14.01,2013-01-29 23:42:00,
2013-01-29 17:47:00,53.7,52.9,29.50,NW,313,0.0,1.0,97,0.19,,---,0.91,VWS V14.01,2013-01-29 23:47:00,
2013-01-29 17:51:00,53.5,52.7,29.50,NW,313,0.0,4.0,97,0.20,,---,0.92,VWS V14.01,2013-01-29 23:51:00,
2013-01-29 17:56:00,53.3,52.5,29.49,NW,313,0.0,4.0,97,0.21,,---,0.93,VWS V14.01,2013-01-29 23:56:00,
2013-01-29 18:00:00,51.9,51.1,29.48,NW,313,0.0,0.0,97,0.16,,---,1.04,VWS V14.01,2013-01-30 00:00:00,
2013-01-29 18:01:00,53.2,52.4,29.50,NW,313,0.0,1.0,97,0.13,,---,0.93,VWS V14.01,2013-01-30 00:01:00,
2013-01-29 18:06:00,53.1,52.3,29.50,NW,313,0.0,1.0,97,0.14,,---,0.94,VWS V14.01,2013-01-30 00:06:00,
2013-01-29 18:11:00,53.0,52.2,29.50,NW,313,0.0,1.0,97,0.15,,---,0.95,VWS V14.01,2013-01-30 00:11:00,
2013-01-29 18:16:00,53.0,52.2,29.50,NW,313,0.0,1.0,97,0.15,,---,0.95,VWS V14.01,2013-01-30 00:16:00,
2013-01-29 18:21:00,53.0,52.5,29.50,NW,313,0.0,1.0,98,0.17,,---,0.97,VWS V14.01,2013-01-30 00:21:00,
2013-01-29 18:26:00,52.9,52.3,29.50,NW,313,0.0,1.0,98,0.18,,---,0.98,VWS V14.01,2013-01-30 00:26:00,
2013-01-29 18:30:00,51.7,51.2,29.45,NW,313,0.0,2.0,98,0.15,,---,1.08,VWS V14.01,2013-01-30 00:30:00,
2013-01-29 18:31:00,52.7,52.2,29.49,NW,313,0.0,0.0,98,0.11,,---,0.99,VWS V14.01,2013-01-30 00:31:00,
2013-01-29 18:36:00,52.5,51.7,29.50,NW,313,0.0,0.0,97,0.11,,---,0.99,VWS V14.01,2013-01-30 00:36:00,
2013-01-29 18:41:00,52.4,51.8,29.49,NW,313,0.0,0.0,98,0.12,,---,1.00,VWS V14.01,2013-01-30 00:41:00,
2013-01-29 18:46:00,52.1,51.3,29.49,NW,313,0.0,0.0,97,0.13,,---,1.01,VWS V14.01,2013-01-30 00:46:00,
2013-01-29 18:51:00,51.9,51.1,29.49,NW,313,0.0,0.0,97,0.14,,---,1.02,VWS V14.01,2013-01-30 00:51:00,
2013-01-29 18:56:00,51.8,51.0,29.48,NW,313,0.0,0.0,97,0.16,,---,1.04,VWS V14.01,2013-01-30 00:56:00,
2013-01-29 19:00:00,50.7,50.2,29.46,SW,217,0.0,2.0,98,0.14,,---,1.12,VWS V14.01,2013-01-30 01:00:00,
2013-01-29 19:01:00,51.9,51.4,29.47,NW,313,0.0,0.0,98,0.12,,---,1.05,VWS V14.01,2013-01-30 01:01:00,
2013-01-29 19:06:00,51.8,51.3,29.47,NW,313,0.0,0.0,98,0.12,,---,1.05,VWS V14.01,2013-01-30 01:06:00,
2013-01-29 19:11:00,51.8,51.3,29.47,NW,313,0.0,0.0,98,0.13,,---,1.06,VWS V14.01,2013-01-30 01:11:00,
2013-01-29 19:16:00,51.8,51.3,29.47,NW,313,0.0,1.0,98,0.14,,---,1.07,VWS V14.01,2013-01-30 01:16:00,
2013-01-29 19:21:00,51.7,51.2,29.46,NW,313,0.0,2.0,98,0.14,,---,1.07,VWS V14.01,2013-01-30 01:21:00,
2013-01-29 19:26:00,51.7,51.2,29.46,NW,313,0.0,2.0,98,0.15,,---,1.08,VWS V14.01,2013-01-30 01:26:00,
2013-01-29 19:30:00,50.2,49.7,29.46,ESE,113,0.0,4.0,98,0.11,,---,1.15,VWS V14.01,2013-01-30 01:30:00,
2013-01-29 19:31:00,51.7,51.2,29.46,NW,313,0.0,0.0,98,0.10,,---,1.08,VWS V14.01,2013-01-30 01:31:00,
2013-01-29 19:36:00,51.7,51.2,29.46,NW,313,0.0,1.0,98,0.11,,---,1.09,VWS V14.01,2013-01-30 01:36:00,
2013-01-29 19:41:00,51.4,50.9,29.47,SW,217,0.0,2.0,98,0.12,,---,1.10,VWS V14.01,2013-01-30 01:41:00,
2013-01-29 19:46:00,51.1,50.6,29.47,SW,217,0.0,2.0,98,0.12,,---,1.10,VWS V14.01,2013-01-30 01:46:00,
2013-01-29 19:51:00,51.0,50.5,29.47,SW,217,0.0,2.0,98,0.13,,---,1.11,VWS V14.01,2013-01-30 01:51:00,
2013-01-29 19:56:00,50.8,50.0,29.47,SW,217,0.0,2.0,97,0.13,,---,1.11,VWS V14.01,2013-01-30 01:56:00,
2013-01-29 20:00:00,49.9,49.4,29.46,ESE,113,0.0,4.0,98,0.12,,---,1.20,VWS V14.01,2013-01-30 02:00:00,
2013-01-29 20:01:00,50.7,50.2,29.46,SW,217,0.0,0.0,98,0.08,,---,1.12,VWS V14.01,2013-01-30 02:01:00,
2013-01-29 20:06:00,50.6,50.1,29.45,ESE,113,0.0,4.0,98,0.08,,---,1.12,VWS V14.01,2013-01-30 02:06:00,
2013-01-29 20:11:00,50.7,50.2,29.45,ESE,113,0.0,4.0,98,0.09,,---,1.13,VWS V14.01,2013-01-30 02:11:00,
2013-01-29 20:16:00,50.5,50.0,29.45,ESE,113,0.0,4.0,98,0.09,,---,1.13,VWS V14.01,2013-01-30 02:16:00,
2013-01-29 20:21:00,50.3,49.8,29.45,ESE,113,0.0,4.0,98,0.10,,---,1.14,VWS V14.01,2013-01-30 02:21:00,
2013-01-29 20:26:00,50.2,49.7,29.46,ESE,113,0.0,4.0,98,0.11,,---,1.15,VWS V14.01,2013-01-30 02:26:00,
2013-01-29 20:30:00,49.5,49.0,29.47,SSE,155,0.0,6.0,98,0.14,,---,1.26,VWS V14.01,2013-01-30 02:30:00,
2013-01-29 20:31:00,50.1,49.6,29.47,ESE,113,0.0,0.0,98,0.07,,---,1.15,VWS V14.01,2013-01-30 02:31:00,
2013-01-29 20:36:00,50.1,49.6,29.46,ESE,113,0.0,0.0,98,0.08,,---,1.16,VWS V14.01,2013-01-30 02:36:00,
2013-01-29 20:41:00,50.3,49.8,29.45,ESE,113,0.0,0.0,98,0.09,,---,1.17,VWS V14.01,2013-01-30 02:41:00,
2013-01-29 20:46:00,50.3,49.8,29.46,ESE,113,0.0,0.0,98,0.10,,---,1.18,VWS V14.01,2013-01-30 02:46:00,
2013-01-29 20:51:00,50.2,49.7,29.45,ESE,113,2.0,4.0,98,0.11,,---,1.19,VWS V14.01,2013-01-30 02:51:00,
2013-01-29 20:56:00,50.0,49.5,29.46,ESE,113,1.0,4.0,98,0.12,,---,1.20,VWS V14.01,2013-01-30 02:56:00,
2013-01-29 21:00:00,50.9,50.4,29.46,SSE,161,2.0,9.0,98,0.15,,---,1.30,VWS V14.01,2013-01-30 03:00:00,
2013-01-29 21:01:00,49.8,49.3,29.47,ESE,113,1.0,1.0,98,0.09,,---,1.21,VWS V14.01,2013-01-30 03:01:00,
2013-01-29 21:06:00,49.8,49.3,29.47,South,173,0.0,5.0,98,0.10,,---,1.22,VWS V14.01,2013-01-30 03:06:00,
2013-01-29 21:11:00,49.7,49.2,29.47,SE,146,0.0,6.0,98,0.11,,---,1.23,VWS V14.01,2013-01-30 03:11:00,
2013-01-29 21:16:00,49.6,49.1,29.47,SE,146,0.0,6.0,98,0.12,,---,1.24,VWS V14.01,2013-01-30 03:16:00,
2013-01-29 21:21:00,49.6,49.1,29.47,SSE,150,2.0,6.0,98,0.13,,---,1.25,VWS V14.01,2013-01-30 03:21:00,
2013-01-29 21:26:00,49.6,49.1,29.47,SSE,155,0.0,6.0,98,0.13,,---,1.25,VWS V14.01,2013-01-30 03:26:00,
2013-01-29 21:30:00,50.0,49.5,29.42,SSE,157,0.0,8.0,98,0.12,,---,1.32,VWS V14.01,2013-01-30 03:30:00,
2013-01-29 21:31:00,49.6,49.1,29.47,SSE,155,0.0,0.0,98,0.11,,---,1.26,VWS V14.01,2013-01-30 03:31:00,
2013-01-29 21:36:00,49.7,49.2,29.47,SSE,155,0.0,4.0,98,0.12,,---,1.27,VWS V14.01,2013-01-30 03:36:00,
2013-01-29 21:41:00,49.9,49.4,29.46,SSE,148,4.0,6.0,98,0.13,,---,1.28,VWS V14.01,2013-01-30 03:41:00,
2013-01-29 21:46:00,50.3,49.8,29.47,SSE,160,5.0,9.0,98,0.14,,---,1.29,VWS V14.01,2013-01-30 03:46:00,
2013-01-29 21:51:00,50.6,50.1,29.46,SSE,148,5.0,9.0,98,0.14,,---,1.29,VWS V14.01,2013-01-30 03:51:00,
2013-01-29 21:56:00,50.8,50.3,29.46,SE,143,0.0,9.0,98,0.15,,---,1.30,VWS V14.01,2013-01-30 03:56:00,
2013-01-29 22:00:00,49.6,49.1,29.41,SE,138,0.0,8.0,98,0.08,,---,1.34,VWS V14.01,2013-01-30 04:00:00,
2013-01-29 22:01:00,50.8,50.3,29.45,SSE,151,4.0,7.0,98,0.10,,---,1.30,VWS V14.01,2013-01-30 04:01:00,
2013-01-29 22:06:00,50.9,50.4,29.45,SSE,152,4.0,7.0,98,0.10,,---,1.30,VWS V14.01,2013-01-30 04:06:00,
2013-01-29 22:11:00,50.9,50.4,29.43,SE,144,4.0,8.0,98,0.10,,---,1.30,VWS V14.01,2013-01-30 04:11:00,
2013-01-29 22:16:00,50.8,50.3,29.44,SSE,154,4.0,8.0,98,0.11,,---,1.31,VWS V14.01,2013-01-30 04:16:00,
2013-01-29 22:21:00,50.5,50.0,29.44,SSW,198,2.0,8.0,98,0.11,,---,1.31,VWS V14.01,2013-01-30 04:21:00,
2013-01-29 22:26:00,50.1,49.6,29.43,South,188,6.0,8.0,98,0.12,,---,1.32,VWS V14.01,2013-01-30 04:26:00,
2013-01-29 22:30:00,44.5,43.7,29.41,WNW,284,8.0,13.0,97,0.04,,---,1.34,VWS V14.01,2013-01-30 04:30:00,
2013-01-29 22:31:00,50.0,49.5,29.42,SE,134,4.0,8.0,98,0.06,,---,1.32,VWS V14.01,2013-01-30 04:31:00,
2013-01-29 22:36:00,50.4,49.9,29.41,SSE,159,2.0,8.0,98,0.07,,---,1.33,VWS V14.01,2013-01-30 04:36:00,
2013-01-29 22:41:00,50.4,49.9,29.41,SSE,160,2.0,8.0,98,0.07,,---,1.33,VWS V14.01,2013-01-30 04:41:00,
2013-01-29 22:46:00,50.4,49.9,29.40,SE,130,0.0,8.0,98,0.07,,---,1.33,VWS V14.01,2013-01-30 04:46:00,
2013-01-29 22:51:00,50.1,49.6,29.41,SE,136,0.0,8.0,98,0.08,,---,1.34,VWS V14.01,2013-01-30 04:51:00,
2013-01-29 22:56:00,49.7,49.2,29.41,SE,138,0.0,8.0,98,0.08,,---,1.34,VWS V14.01,2013-01-30 04:56:00,
2013-01-29 23:00:00,49.5,49.0,29.41,SE,138,0.0,0.0,98,0.04,,---,1.34,VWS V14.01,2013-01-30 05:00:00,
2013-01-29 23:02:00,49.5,49.0,29.41,SE,138,0.0,0.0,98,0.04,,---,1.34,VWS V14.01,2013-01-30 05:02:00,
2013-01-29 23:03:00,49.5,49.0,29.41,SE,138,0.0,0.0,98,0.04,,---,1.34,VWS V14.01,2013-01-30 05:03:00,
2013-01-29 23:08:00,49.5,49.0,29.40,WSW,258,0.0,5.0,98,0.04,,---,1.34,VWS V14.01,2013-01-30 05:08:00,
2013-01-29 23:13:00,49.6,49.1,29.40,WSW,258,0.0,5.0,98,0.04,,---,1.34,VWS V14.01,2013-01-30 05:13:00,
2013-01-29 23:18:00,49.4,48.9,29.39,NNW,336,6.0,11.0,98,0.04,,---,1.34,VWS V14.01,2013-01-30 05:18:00,
2013-01-29 23:23:00,46.6,45.8,29.41,NW,313,8.0,11.0,97,0.04,,---,1.34,VWS V14.01,2013-01-30 05:23:00,
2013-01-29 23:28:00,44.8,43.7,29.41,NNW,339,10.0,13.0,96,0.04,,---,1.34,VWS V14.01,2013-01-30 05:28:00,
2013-01-29 23:30:00,40.6,39.8,29.42,NW,322,6.0,13.0,97,0.05,,---,0.02,VWS V14.01,2013-01-30 05:30:00,
2013-01-29 23:33:00,43.8,43.0,29.41,West,279,8.0,11.0,97,0.02,,---,1.34,VWS V14.01,2013-01-30 05:33:00,
2013-01-29 23:38:00,43.2,42.4,29.41,West,273,10.0,12.0,97,0.03,,---,1.35,VWS V14.01,2013-01-30 05:38:00,
2013-01-29 23:43:00,42.7,41.9,29.42,West,281,5.0,12.0,97,0.03,,---,1.35,VWS V14.01,2013-01-30 05:43:00,
2013-01-29 23:48:00,42.3,41.5,29.41,NNW,330,7.0,12.0,97,0.03,,---,1.35,VWS V14.01,2013-01-30 05:48:00,
2013-01-29 23:53:00,41.9,41.1,29.42,WNW,288,4.0,16.0,97,0.04,,---,1.36,VWS V14.01,2013-01-30 05:53:00,
2013-01-29 23:58:00,41.5,40.7,29.43,NNW,347,4.0,16.0,97,0.04,,---,1.36,VWS V14.01,2013-01-30 05:58:00,